createdAt,value
2019-03-17T17:14:05.258Z,0.77
2019-03-17T17:16:35.264Z,0.50
2019-03-17T17:19:04.977Z,0.50
2019-03-17T17:21:34.749Z,0.50
2019-03-17T17:24:11.189Z,0.73
2019-03-17T17:26:42.338Z,0.60
2019-03-17T17:29:11.950Z,0.40
2019-03-17T17:31:41.404Z,0.57
2019-03-17T17:34:10.875Z,0.60
2019-03-17T17:36:40.326Z,1.13
2019-03-17T17:39:09.964Z,0.60
2019-03-17T17:41:39.473Z,0.80
2019-03-17T17:44:09.054Z,0.80
2019-03-17T17:46:38.478Z,0.90
2019-03-17T17:49:07.955Z,1.17
2019-03-17T17:51:37.419Z,0.80
2019-03-17T17:54:06.763Z,0.80
2019-03-17T17:56:36.038Z,0.97
2019-03-17T17:59:05.326Z,0.70
2019-03-17T18:01:34.599Z,0.80
2019-03-17T18:04:04.168Z,0.87
2019-03-17T18:06:33.459Z,0.90
2019-03-17T18:09:02.882Z,0.90
2019-03-17T18:11:32.435Z,1.03
2019-03-17T18:14:01.770Z,0.90
2019-03-17T18:16:31.058Z,1.20
2019-03-17T18:19:00.363Z,0.90
2019-03-17T18:21:29.642Z,0.83
2019-03-17T18:23:59.011Z,0.90
2019-03-17T18:26:28.315Z,0.93
2019-03-17T18:28:57.584Z,0.80
2019-03-17T18:31:27.015Z,1.27
2019-03-17T18:33:56.455Z,1.00
2019-03-17T18:36:25.740Z,1.07
2019-03-17T18:38:55.003Z,1.00
2019-03-17T18:41:24.446Z,1.20
2019-03-17T18:43:53.719Z,1.47
2019-03-17T18:46:23.012Z,1.23
2019-03-17T18:48:52.303Z,1.27
2019-03-17T18:51:21.574Z,1.20
2019-03-17T18:53:50.866Z,1.47
2019-03-17T18:56:20.139Z,1.10
2019-03-17T18:58:49.436Z,2.17
2019-03-17T19:01:18.703Z,1.40
2019-03-17T19:03:48.050Z,1.40
2019-03-17T19:06:17.327Z,0.90
2019-03-17T19:08:46.617Z,0.90
2019-03-17T19:11:16.066Z,1.00
2019-03-17T19:13:45.361Z,1.20
2019-03-17T19:16:14.682Z,1.00
2019-03-17T19:18:43.999Z,0.80
2019-03-17T19:21:13.403Z,0.90
2019-03-17T19:23:42.699Z,0.90
2019-03-17T19:26:11.968Z,1.40
2019-03-17T19:28:42.247Z,1.23
2019-03-17T19:31:11.639Z,1.37
2019-03-17T19:33:40.926Z,1.13
2019-03-17T19:36:10.388Z,1.00
2019-03-17T19:38:39.647Z,0.90
2019-03-17T19:41:08.948Z,1.07
2019-03-17T19:43:38.211Z,1.10
2019-03-17T19:46:08.078Z,1.10
2019-03-17T19:48:37.374Z,0.90
2019-03-17T19:51:06.655Z,1.10
2019-03-17T19:53:35.967Z,1.20
2019-03-17T19:56:05.263Z,1.07
2019-03-17T19:58:34.598Z,1.33
2019-03-17T20:01:03.970Z,1.57
2019-03-17T20:03:33.246Z,1.40
2019-03-17T20:06:02.815Z,1.77
2019-03-17T20:08:32.249Z,1.30
2019-03-17T20:11:01.567Z,1.37
2019-03-17T20:13:30.851Z,1.50
2019-03-17T20:16:00.303Z,1.63
2019-03-17T20:18:29.669Z,1.90
2019-03-17T20:20:59.131Z,1.70
2019-03-17T20:23:28.529Z,1.47
2019-03-17T20:25:57.864Z,2.20
2019-03-17T20:28:27.162Z,2.00
2019-03-17T20:30:56.578Z,2.17
2019-03-17T20:33:25.932Z,1.93
2019-03-17T20:35:55.606Z,2.03
2019-03-17T20:38:24.934Z,1.97
2019-03-17T20:40:54.223Z,1.60
2019-03-17T20:43:34.224Z,1.70
2019-03-17T20:45:54.494Z,1.70
2019-03-17T20:48:23.816Z,1.80
2019-03-17T20:50:53.278Z,1.60
2019-03-17T20:53:22.638Z,1.40
2019-03-17T20:55:51.922Z,1.20
2019-03-17T20:58:21.226Z,1.70
2019-03-17T21:00:50.495Z,1.50
2019-03-17T21:03:19.794Z,1.50
2019-03-17T21:05:49.071Z,1.50
2019-03-17T21:08:18.359Z,1.50
2019-03-17T21:10:49.918Z,1.20
2019-03-17T21:13:18.691Z,1.47
2019-03-17T21:15:47.967Z,1.20
2019-03-17T21:18:17.262Z,1.47
2019-03-17T21:20:46.539Z,2.27
2019-03-17T21:23:15.913Z,1.27
2019-03-17T21:25:45.258Z,1.10
2019-03-17T21:28:14.616Z,0.50
2019-03-17T21:30:43.922Z,0.53
2019-03-17T21:33:13.226Z,0.50
2019-03-17T21:35:42.479Z,0.50
2019-03-17T21:38:11.851Z,0.43
2019-03-17T21:41:01.408Z,0.40
2019-03-17T21:43:12.378Z,0.30
2019-03-17T21:45:41.758Z,0.40
2019-03-17T21:48:11.156Z,0.30
2019-03-17T21:50:41.499Z,0.50
2019-03-17T21:53:10.942Z,0.40
2019-03-17T21:55:40.199Z,0.60
2019-03-17T21:58:09.499Z,0.67
2019-03-17T22:00:38.826Z,0.40
2019-03-17T22:03:08.317Z,0.40
2019-03-17T22:05:37.762Z,0.37
2019-03-17T22:08:07.196Z,0.50
2019-03-17T22:10:37.208Z,0.37
2019-03-17T22:13:06.627Z,0.50
2019-03-17T22:15:35.993Z,0.50
2019-03-17T22:18:05.274Z,0.50
2019-03-17T22:20:34.672Z,0.47
2019-03-17T22:23:04.090Z,0.50
2019-03-17T22:25:33.431Z,0.70
2019-03-17T22:28:08.215Z,0.43
2019-03-17T22:30:33.694Z,0.47
2019-03-17T22:33:03.007Z,0.60
2019-03-17T22:35:32.394Z,0.80
2019-03-17T22:38:01.694Z,1.20
2019-03-17T22:40:31.129Z,1.07
2019-03-17T22:43:00.541Z,0.80
2019-03-17T22:45:29.980Z,1.10
2019-03-17T22:47:59.262Z,1.87
2019-03-17T22:50:28.567Z,0.97
2019-03-17T22:52:57.901Z,0.63
2019-03-17T22:55:27.350Z,0.50
2019-03-17T22:57:59.054Z,0.40
2019-03-17T23:00:35.429Z,0.63
2019-03-17T23:03:06.429Z,0.60
2019-03-17T23:05:35.782Z,0.67
2019-03-17T23:08:05.071Z,0.50
2019-03-17T23:10:34.431Z,0.57
2019-03-17T23:13:03.813Z,0.80
2019-03-17T23:15:35.509Z,0.73
2019-03-17T23:18:04.434Z,0.97
2019-03-17T23:20:33.738Z,1.50
2019-03-17T23:23:03.007Z,1.27
2019-03-17T23:25:32.303Z,1.27
2019-03-17T23:28:01.575Z,1.30
2019-03-17T23:30:30.872Z,1.50
2019-03-17T23:33:00.142Z,1.60
2019-03-17T23:35:29.443Z,2.10
2019-03-17T23:37:58.715Z,2.13
2019-03-17T23:40:28.015Z,1.97
2019-03-17T23:42:57.287Z,2.00
2019-03-17T23:45:26.662Z,2.30
2019-03-17T23:47:55.936Z,2.30
2019-03-17T23:50:25.205Z,2.60
2019-03-17T23:52:54.551Z,2.53
2019-03-17T23:55:23.826Z,2.27
2019-03-17T23:57:53.239Z,2.50
